Time;durP1;ratioP1;P1;durP2;ratioP2;P2;SDS_P1;SDS_P2;PMS_P1;PMS_P2;Temp;Humidity;BMP_temperature;BMP_pressure;BME280_temperature;BME280_humidity;BME280_pressure;Samples;Min_cycle;Max_cycle;Signal;HPM_P1;HPM_P2
2022/07/18 00:01:47;;;;;;;0.95;0.40;;;14.50;99.90;;;;;;5053793;28;20570;-78
2022/07/18 00:04:17;;;;;;;0.82;0.52;;;14.60;99.90;;;;;;5054282;28;20192;-78
2022/07/18 00:06:50;;;;;;;1.40;0.40;;;14.70;99.90;;;;;;5045423;28;20201;-76
2022/07/18 00:09:22;;;;;;;1.02;0.40;;;14.70;99.90;;;;;;5039072;28;20184;-79
2022/07/18 00:11:53;;;;;;;1.25;0.43;;;14.80;99.90;;;;;;5053802;28;20705;-76
2022/07/18 00:14:25;;;;;;;1.08;0.38;;;14.70;99.90;;;;;;5053457;28;20185;-79
2022/07/18 00:16:55;;;;;;;1.33;0.50;;;14.60;99.90;;;;;;5053814;28;20185;-76
2022/07/18 00:19:26;;;;;;;0.85;0.30;;;14.60;99.90;;;;;;5042699;28;20197;-78
2022/07/18 00:21:58;;;;;;;0.50;0.22;;;14.60;99.90;;;;;;5046918;28;20560;-76
2022/07/18 00:24:29;;;;;;;0.60;0.30;;;14.70;99.90;;;;;;5050798;28;20189;-77
2022/07/18 00:27:00;;;;;;;1.10;0.30;;;14.80;99.90;;;;;;5055565;28;20205;-77
2022/07/18 00:29:31;;;;;;;3.28;0.43;;;14.80;99.90;;;;;;5047527;28;20552;-77
2022/07/18 00:32:02;;;;;;;0.22;0.20;;;14.80;99.90;;;;;;5052904;28;20193;-78
2022/07/18 00:34:32;;;;;;;0.45;0.40;;;14.80;99.90;;;;;;5050657;28;20202;-78
2022/07/18 00:37:05;;;;;;;1.45;0.40;;;14.90;99.90;;;;;;5045200;28;20190;-78
2022/07/18 00:39:36;;;;;;;2.38;0.57;;;14.90;99.90;;;;;;5053915;28;20201;-79
2022/07/18 00:42:07;;;;;;;2.20;0.60;;;14.80;99.90;;;;;;5053517;28;20193;-80
2022/07/18 00:44:37;;;;;;;1.33;0.47;;;14.90;99.90;;;;;;5052801;28;20196;-76
2022/07/18 00:47:08;;;;;;;0.63;0.43;;;15.00;99.90;;;;;;5053291;28;20212;-79
2022/07/18 00:49:39;;;;;;;0.82;0.40;;;15.00;99.90;;;;;;5053430;28;20280;-79
2022/07/18 00:52:12;;;;;;;0.45;0.28;;;14.90;99.90;;;;;;5052768;28;20195;-78
2022/07/18 00:54:44;;;;;;;2.05;0.45;;;14.80;99.90;;;;;;5056861;28;20190;-80
2022/07/18 00:57:14;;;;;;;0.93;0.40;;;14.90;99.90;;;;;;5053096;28;20189;-78
2022/07/18 01:02:32;;;;;;;2.53;0.40;;;14.90;99.90;;;;;;5042884;28;20201;-78
2022/07/18 01:05:02;;;;;;;1.88;0.50;;;14.90;99.90;;;;;;5034177;28;20194;-79
2022/07/18 01:07:35;;;;;;;0.40;0.30;;;14.90;99.90;;;;;;5033407;28;20194;-78
2022/07/18 01:10:07;;;;;;;0.40;0.40;;;15.00;99.90;;;;;;5043745;28;20731;-78
2022/07/18 01:12:38;;;;;;;50.08;25.65;;;15.00;99.90;;;;;;5052930;28;20636;-79
2022/07/18 01:15:10;;;;;;;25.83;14.15;;;15.10;99.90;;;;;;5051912;28;20185;-78
2022/07/18 01:17:41;;;;;;;11.02;6.53;;;15.10;99.90;;;;;;5041823;28;20673;-77
2022/07/18 01:20:12;;;;;;;7.05;3.95;;;15.10;99.90;;;;;;5053269;28;20201;-81
2022/07/18 01:22:45;;;;;;;4.95;1.40;;;15.10;99.90;;;;;;5053476;28;20202;-80
2022/07/18 01:25:17;;;;;;;1.48;0.93;;;15.10;99.90;;;;;;5047911;28;20533;-78
2022/07/18 01:27:47;;;;;;;0.40;0.40;;;15.20;99.90;;;;;;5051486;28;20308;-78
2022/07/18 01:30:18;;;;;;;0.90;0.40;;;15.30;99.90;;;;;;5052405;28;20192;-81
2022/07/18 01:32:49;;;;;;;1.67;0.50;;;15.40;99.90;;;;;;5052769;28;20201;-78
2022/07/18 01:35:20;;;;;;;0.40;0.35;;;15.40;99.90;;;;;;5066819;22;20577;-76
2022/07/18 01:37:53;;;;;;;2.92;0.40;;;15.40;99.90;;;;;;5052407;28;20529;-74
2022/07/18 01:40:24;;;;;;;1.60;0.70;;;15.50;99.90;;;;;;5052954;28;20200;-75
2022/07/18 01:42:55;;;;;;;1.65;0.40;;;15.60;99.90;;;;;;5052647;28;20197;-75
2022/07/18 01:45:26;;;;;;;0.75;0.35;;;15.70;99.90;;;;;;5052454;28;20189;-74
2022/07/18 01:47:56;;;;;;;0.47;0.30;;;15.80;99.90;;;;;;5041738;28;20220;-75
2022/07/18 01:50:27;;;;;;;0.57;0.25;;;15.70;99.90;;;;;;5049032;28;20190;-76
2022/07/18 01:53:00;;;;;;;0.73;0.25;;;15.70;99.90;;;;;;5051873;28;20190;-76
2022/07/18 01:55:30;;;;;;;1.33;0.20;;;15.70;99.90;;;;;;5051867;28;20186;-75
2022/07/18 01:58:01;;;;;;;0.50;0.20;;;15.60;99.90;;;;;;5050830;28;20193;-75
2022/07/18 02:00:32;;;;;;;0.50;0.40;;;15.60;99.90;;;;;;5052266;28;20213;-75
2022/07/18 02:03:02;;;;;;;0.32;0.20;;;15.60;99.90;;;;;;5052398;28;20640;-76
2022/07/18 02:05:33;;;;;;;0.63;0.30;;;15.60;99.90;;;;;;5048245;28;20190;-75
2022/07/18 02:08:06;;;;;;;1.42;0.40;;;15.60;99.90;;;;;;5042446;28;20221;-74
2022/07/18 02:10:37;;;;;;;0.20;0.20;;;15.50;99.90;;;;;;5052569;28;20243;-75
2022/07/18 02:13:08;;;;;;;0.90;0.40;;;15.50;99.90;;;;;;5051995;28;20200;-75
2022/07/18 02:15:39;;;;;;;0.82;0.30;;;15.50;99.90;;;;;;5052103;28;20193;-73
2022/07/18 02:18:10;;;;;;;0.47;0.30;;;15.40;99.90;;;;;;5052458;28;20201;-74
2022/07/18 02:20:41;;;;;;;0.65;0.30;;;15.30;99.90;;;;;;5051819;28;20185;-76
2022/07/18 02:23:14;;;;;;;0.40;0.20;;;15.30;99.90;;;;;;5052618;28;20197;-73
2022/07/18 02:25:44;;;;;;;0.73;0.30;;;15.40;99.90;;;;;;5051911;28;20205;-75
2022/07/18 02:28:15;;;;;;;0.68;0.25;;;15.30;99.90;;;;;;5052364;28;20228;-75
2022/07/18 02:30:46;;;;;;;1.25;0.30;;;15.30;99.90;;;;;;5052523;28;20561;-75
2022/07/18 02:33:17;;;;;;;1.08;0.25;;;15.30;99.90;;;;;;5050721;28;20659;-77
2022/07/18 02:35:47;;;;;;;0.40;0.40;;;15.30;99.90;;;;;;5029579;28;20697;-78
2022/07/18 02:38:20;;;;;;;1.27;0.40;;;15.40;99.90;;;;;;5032680;28;20202;-77
2022/07/18 02:40:51;;;;;;;1.52;0.30;;;15.40;99.90;;;;;;5031701;28;20637;-77
2022/07/18 02:43:22;;;;;;;0.88;0.40;;;15.40;99.90;;;;;;5024952;28;21041;-77
2022/07/18 02:45:52;;;;;;;0.85;0.30;;;15.50;99.90;;;;;;5031980;28;20190;-77
2022/07/18 02:48:23;;;;;;;2.30;0.40;;;15.60;99.90;;;;;;5032220;28;20252;-77
2022/07/18 02:50:54;;;;;;;0.73;0.30;;;15.60;99.90;;;;;;5031933;28;20191;-77
2022/07/18 02:53:26;;;;;;;0.20;0.10;;;15.70;99.90;;;;;;5032140;28;20194;-75
2022/07/18 02:55:57;;;;;;;1.27;0.40;;;15.60;99.90;;;;;;5031504;28;20186;-77
2022/07/18 02:58:28;;;;;;;0.45;0.20;;;15.50;99.90;;;;;;5031996;28;20198;-77
2022/07/18 03:00:59;;;;;;;0.30;0.30;;;15.40;99.90;;;;;;5032359;28;20194;-78
2022/07/18 03:03:29;;;;;;;1.30;0.30;;;15.40;99.90;;;;;;5032174;28;20190;-77
2022/07/18 03:06:00;;;;;;;1.85;0.40;;;15.40;99.90;;;;;;5031810;28;20642;-75
2022/07/18 03:08:35;;;;;;;1.27;0.40;;;15.40;99.90;;;;;;5031769;28;20272;-77
2022/07/18 03:11:06;;;;;;;1.58;0.50;;;15.50;99.90;;;;;;5031995;28;20194;-77
2022/07/18 03:13:37;;;;;;;1.00;0.40;;;15.40;99.90;;;;;;5031938;28;20198;-76
2022/07/18 03:16:08;;;;;;;0.60;0.30;;;15.50;99.90;;;;;;5031675;28;20195;-76
2022/07/18 03:18:38;;;;;;;0.98;0.20;;;15.60;99.90;;;;;;5031759;28;20194;-77
2022/07/18 03:21:09;;;;;;;1.23;0.30;;;15.50;99.90;;;;;;5025530;28;20198;-77
2022/07/18 03:23:42;;;;;;;0.93;0.40;;;15.40;99.90;;;;;;5031511;28;20657;-77
2022/07/18 03:26:12;;;;;;;1.95;0.93;;;15.30;99.90;;;;;;5031172;28;20605;-77
2022/07/18 03:28:43;;;;;;;0.93;0.50;;;15.40;99.90;;;;;;5032447;28;20311;-76
2022/07/18 03:31:14;;;;;;;0.30;0.30;;;15.40;99.90;;;;;;5035416;28;20198;-76
2022/07/18 03:33:45;;;;;;;0.30;0.30;;;15.50;99.90;;;;;;5034646;28;20217;-76
2022/07/18 03:36:16;;;;;;;2.85;0.40;;;15.50;99.90;;;;;;5035356;28;20194;-77
2022/07/18 03:38:48;;;;;;;1.20;0.30;;;15.50;99.90;;;;;;5035177;28;20195;-77
2022/07/18 03:41:19;;;;;;;2.58;0.57;;;15.50;99.90;;;;;;5031985;28;20194;-77
2022/07/18 03:43:50;;;;;;;2.35;0.30;;;15.40;99.90;;;;;;5035117;28;20198;-77
2022/07/18 03:46:20;;;;;;;0.85;0.40;;;15.40;99.90;;;;;;5035231;28;20194;-77
2022/07/18 03:48:51;;;;;;;1.63;0.70;;;15.30;99.90;;;;;;5035134;28;20218;-77
2022/07/18 03:51:22;;;;;;;0.55;0.30;;;15.30;99.90;;;;;;5035238;28;20195;-75
2022/07/18 03:53:54;;;;;;;2.47;0.85;;;15.30;99.90;;;;;;5047055;28;20197;-78
2022/07/18 03:56:25;;;;;;;5.15;0.60;;;15.40;99.90;;;;;;5054948;28;20202;-77
2022/07/18 03:58:56;;;;;;;0.80;0.40;;;15.40;99.90;;;;;;5050790;28;20605;-78
2022/07/18 04:01:26;;;;;;;0.52;0.32;;;15.40;99.90;;;;;;5034255;28;20186;-76
2022/07/18 04:03:57;;;;;;;0.77;0.40;;;15.20;99.90;;;;;;5034876;28;20201;-76
2022/07/18 04:06:28;;;;;;;2.75;0.45;;;15.30;99.90;;;;;;5023083;28;20187;-77
2022/07/18 04:09:00;;;;;;;0.68;0.40;;;15.30;99.90;;;;;;5014652;28;20215;-76
2022/07/18 04:11:31;;;;;;;1.65;0.40;;;15.20;99.90;;;;;;5014967;28;20198;-77
2022/07/18 04:14:02;;;;;;;4.47;0.43;;;15.20;99.90;;;;;;5014744;28;20561;-77
2022/07/18 04:16:32;;;;;;;1.85;0.40;;;15.10;99.90;;;;;;5014897;28;20550;-76
2022/07/18 04:19:03;;;;;;;0.82;0.30;;;15.10;99.90;;;;;;5029826;28;20201;-78
2022/07/18 04:21:34;;;;;;;0.63;0.28;;;15.10;99.90;;;;;;5034015;28;20269;-77
2022/07/18 04:24:06;;;;;;;0.70;0.30;;;15.10;99.90;;;;;;5040739;28;20193;-76
2022/07/18 04:26:37;;;;;;;0.95;0.30;;;15.10;99.90;;;;;;5033707;28;20680;-77
2022/07/18 04:29:08;;;;;;;0.82;0.35;;;15.10;99.90;;;;;;5049884;28;20204;-77
2022/07/18 04:31:39;;;;;;;0.88;0.60;;;15.10;99.90;;;;;;5049090;28;20193;-76
2022/07/18 04:34:10;;;;;;;2.30;0.93;;;15.20;99.90;;;;;;5033686;28;20229;-77
2022/07/18 04:36:40;;;;;;;0.60;0.30;;;15.30;99.90;;;;;;5034041;28;20557;-76
2022/07/18 04:39:13;;;;;;;1.58;0.45;;;15.30;99.90;;;;;;5034318;28;20186;-74
2022/07/18 04:41:47;;;;;;;0.40;0.30;;;15.20;99.90;;;;;;5033001;28;20658;-74
2022/07/18 04:44:18;;;;;;;1.02;0.32;;;15.20;99.90;;;;;;5034067;28;20195;-75
2022/07/18 04:46:48;;;;;;;2.05;0.40;;;15.20;99.90;;;;;;5034117;28;20201;-75
2022/07/18 04:49:19;;;;;;;1.10;0.32;;;15.20;99.90;;;;;;5033994;28;20194;-75
2022/07/18 04:51:50;;;;;;;1.35;0.40;;;15.20;99.90;;;;;;5033787;28;20584;-74
2022/07/18 04:54:22;;;;;;;0.88;0.47;;;15.10;99.90;;;;;;5038732;28;20567;-74
2022/07/18 04:56:53;;;;;;;1.27;0.45;;;15.10;99.90;;;;;;5053773;28;20645;-75
2022/07/18 04:59:24;;;;;;;0.40;0.40;;;15.10;99.90;;;;;;5053720;28;20648;-75
2022/07/18 05:01:54;;;;;;;1.90;0.70;;;15.10;99.90;;;;;;5051066;28;20189;-74
2022/07/18 05:04:25;;;;;;;1.13;0.55;;;15.10;99.90;;;;;;5033404;28;20221;-74
2022/07/18 05:06:56;;;;;;;0.90;0.30;;;15.10;99.90;;;;;;5033403;28;20202;-74
2022/07/18 05:09:28;;;;;;;0.50;0.30;;;15.10;99.90;;;;;;5033661;28;20245;-74
2022/07/18 05:11:59;;;;;;;0.57;0.30;;;15.20;99.90;;;;;;5033560;28;20206;-74
2022/07/18 05:14:30;;;;;;;2.05;0.40;;;15.20;99.90;;;;;;5033383;28;20190;-74
2022/07/18 05:17:00;;;;;;;0.88;0.40;;;15.30;99.90;;;;;;5033179;28;20190;-74
2022/07/18 05:19:31;;;;;;;1.60;0.50;;;15.20;99.90;;;;;;5033042;28;20217;-74
2022/07/18 05:22:01;;;;;;;2.28;0.50;;;15.10;99.90;;;;;;5033522;28;20190;-74
2022/07/18 05:24:34;;;;;;;2.33;0.57;;;15.10;99.90;;;;;;5032891;28;20273;-75
2022/07/18 05:27:05;;;;;;;0.50;0.40;;;15.10;99.90;;;;;;5033149;28;20209;-74
2022/07/18 05:29:35;;;;;;;0.75;0.30;;;15.00;99.90;;;;;;5033239;28;20198;-74
2022/07/18 05:32:07;;;;;;;0.30;0.30;;;15.00;99.90;;;;;;5025084;28;20670;-75
2022/07/18 05:34:37;;;;;;;3.92;0.40;;;15.00;99.90;;;;;;5032326;28;20234;-75
2022/07/18 05:37:08;;;;;;;2.55;0.52;;;15.00;99.90;;;;;;5032941;28;20198;-75
2022/07/18 05:39:41;;;;;;;0.82;0.30;;;15.00;99.90;;;;;;5032668;28;20190;-75
2022/07/18 05:42:11;;;;;;;1.48;0.30;;;15.00;99.90;;;;;;5032920;28;20202;-75
2022/07/18 05:44:42;;;;;;;2.25;0.40;;;15.00;99.90;;;;;;5032969;28;20190;-75
2022/07/18 05:47:13;;;;;;;1.48;0.80;;;15.00;99.90;;;;;;5032888;28;20190;-75
2022/07/18 05:49:43;;;;;;;0.80;0.40;;;14.90;99.90;;;;;;5032705;28;20186;-75
2022/07/18 05:52:14;;;;;;;1.73;0.63;;;14.90;99.90;;;;;;5032873;28;20672;-75
2022/07/18 05:54:47;;;;;;;4.55;0.47;;;15.00;99.90;;;;;;5032723;28;20190;-75
2022/07/18 05:57:17;;;;;;;0.50;0.38;;;14.90;99.90;;;;;;5013028;28;20558;-74
2022/07/18 05:59:48;;;;;;;0.88;0.50;;;14.90;99.90;;;;;;5012747;28;20265;-74
2022/07/18 06:02:19;;;;;;;1.35;0.43;;;14.80;99.90;;;;;;5022022;28;20194;-74
2022/07/18 06:04:49;;;;;;;0.90;0.47;;;14.70;99.90;;;;;;5031775;28;20551;-73
2022/07/18 06:07:20;;;;;;;0.63;0.40;;;14.70;99.90;;;;;;5032484;28;20583;-73
2022/07/18 06:10:05;;;;;;;0.93;0.40;;;14.60;99.90;;;;;;5032964;28;20191;-75
2022/07/18 06:12:35;;;;;;;1.17;0.40;;;14.60;99.90;;;;;;5031389;28;20201;-74
2022/07/18 06:15:07;;;;;;;1.25;0.35;;;14.60;99.90;;;;;;5032440;28;20248;-76
2022/07/18 06:17:37;;;;;;;2.33;0.50;;;14.60;99.90;;;;;;5016869;28;20612;-75
2022/07/18 06:20:09;;;;;;;2.05;0.40;;;14.50;99.90;;;;;;5026911;28;20194;-75
2022/07/18 06:22:40;;;;;;;0.68;0.30;;;14.50;99.90;;;;;;5037113;28;20254;-76
2022/07/18 06:25:13;;;;;;;1.33;0.30;;;14.50;99.90;;;;;;5038223;28;20190;-75
2022/07/18 06:27:44;;;;;;;2.97;0.60;;;14.40;99.90;;;;;;5032541;28;20210;-75
2022/07/18 06:30:15;;;;;;;1.35;0.40;;;14.30;99.90;;;;;;5045466;28;20193;-75
2022/07/18 06:32:46;;;;;;;2.55;0.50;;;14.30;99.90;;;;;;5052176;28;20198;-76
2022/07/18 06:35:17;;;;;;;1.45;0.47;;;14.20;99.90;;;;;;5032636;28;20237;-76
2022/07/18 06:37:47;;;;;;;1.05;0.50;;;14.20;99.90;;;;;;5036299;28;20205;-76
2022/07/18 06:40:20;;;;;;;0.47;0.38;;;14.10;99.90;;;;;;5032375;28;20193;-76
2022/07/18 06:42:51;;;;;;;2.10;0.68;;;14.10;99.90;;;;;;5043733;28;20194;-76
2022/07/18 06:45:22;;;;;;;0.40;0.40;;;14.00;99.90;;;;;;5044662;28;20183;-76
2022/07/18 06:47:53;;;;;;;0.90;0.60;;;13.90;99.90;;;;;;5047506;28;20213;-76
2022/07/18 06:50:23;;;;;;;1.05;0.43;;;13.90;99.90;;;;;;5049437;28;20213;-75
2022/07/18 06:52:54;;;;;;;1.27;0.70;;;13.80;99.90;;;;;;5035200;28;20195;-76
2022/07/18 06:55:27;;;;;;;1.05;0.50;;;13.70;99.90;;;;;;5033318;28;20277;-76
2022/07/18 06:57:57;;;;;;;3.60;0.60;;;13.70;99.90;;;;;;5034896;28;20653;-76
2022/07/18 07:00:28;;;;;;;2.08;0.70;;;13.60;99.90;;;;;;5032103;28;20190;-76
2022/07/18 07:02:59;;;;;;;1.70;0.65;;;13.50;99.90;;;;;;5032024;28;20191;-77
2022/07/18 07:05:30;;;;;;;1.42;0.60;;;13.40;99.90;;;;;;5045554;28;20197;-76
2022/07/18 07:08:01;;;;;;;0.52;0.50;;;13.40;99.90;;;;;;5047988;28;20221;-76
2022/07/18 07:10:33;;;;;;;2.83;0.80;;;13.30;99.90;;;;;;5032439;28;20279;-77
2022/07/18 07:13:04;;;;;;;1.88;0.80;;;13.20;99.90;;;;;;5035375;28;20187;-76
2022/07/18 07:15:35;;;;;;;1.15;0.70;;;13.20;99.90;;;;;;5035033;28;20214;-77
2022/07/18 07:18:05;;;;;;;1.73;0.73;;;13.10;99.90;;;;;;5035769;28;20281;-77
2022/07/18 07:20:36;;;;;;;1.88;1.00;;;13.00;99.90;;;;;;5035767;28;20207;-77
2022/07/18 07:23:07;;;;;;;2.45;1.10;;;13.00;99.90;;;;;;5035720;28;20194;-77
2022/07/18 07:25:41;;;;;;;1.80;1.40;;;13.00;99.90;;;;;;5035706;28;20278;-76
2022/07/18 07:28:11;;;;;;;3.15;1.55;;;12.90;99.90;;;;;;5035205;28;20218;-77
2022/07/18 07:30:43;;;;;;;3.63;1.30;;;12.90;99.90;;;;;;5034442;28;20194;-76
2022/07/18 07:33:13;;;;;;;2.67;0.93;;;12.80;99.90;;;;;;5033213;28;20190;-76
2022/07/18 07:35:44;;;;;;;1.23;0.80;;;12.80;99.90;;;;;;5050066;22;20235;-76
2022/07/18 07:38:19;;;;;;;1.65;1.10;;;12.70;99.90;;;;;;5041984;28;20202;-76
2022/07/18 07:40:52;;;;;;;2.50;1.10;;;12.70;99.90;;;;;;5034459;28;20190;-76
2022/07/18 07:43:23;;;;;;;1.73;1.10;;;12.60;99.90;;;;;;5035160;28;20244;-76
2022/07/18 07:45:55;;;;;;;2.00;1.15;;;12.60;99.90;;;;;;5034691;28;20194;-76
2022/07/18 07:48:29;;;;;;;3.63;1.23;;;12.60;99.90;;;;;;5034705;28;20217;-75
2022/07/18 07:50:59;;;;;;;3.47;1.25;;;12.50;99.90;;;;;;5034289;28;20209;-75
2022/07/18 07:53:30;;;;;;;3.65;1.10;;;12.50;99.90;;;;;;5034974;28;20654;-75
2022/07/18 07:56:03;;;;;;;2.80;1.38;;;12.40;99.90;;;;;;5034727;28;20584;-75
2022/07/18 07:58:33;;;;;;;3.45;1.40;;;12.50;99.90;;;;;;5034912;28;20213;-76
2022/07/18 08:01:04;;;;;;;5.43;1.50;;;12.40;99.90;;;;;;5034810;28;20205;-76
2022/07/18 08:03:35;;;;;;;3.10;1.50;;;12.30;99.90;;;;;;5034725;28;20190;-76
2022/07/18 08:06:05;;;;;;;2.47;1.35;;;12.30;99.90;;;;;;5034615;28;20198;-75
2022/07/18 08:08:36;;;;;;;1.85;1.40;;;12.30;99.90;;;;;;5034801;28;20218;-75
2022/07/18 08:11:09;;;;;;;3.00;1.60;;;12.20;99.90;;;;;;5034223;28;20194;-75
2022/07/18 08:13:39;;;;;;;3.22;1.58;;;12.20;99.90;;;;;;5033922;28;20198;-75
2022/07/18 08:16:10;;;;;;;3.42;1.70;;;12.10;99.90;;;;;;5033932;28;20190;-75
2022/07/18 08:18:41;;;;;;;3.40;1.65;;;12.10;99.90;;;;;;5034737;28;20201;-76
2022/07/18 08:21:12;;;;;;;4.80;1.60;;;12.10;99.90;;;;;;5034562;28;20194;-75
2022/07/18 08:23:43;;;;;;;3.70;1.70;;;12.00;99.90;;;;;;5034402;28;20191;-75
2022/07/18 08:26:15;;;;;;;2.28;1.35;;;12.00;99.90;;;;;;5034264;28;20213;-75
2022/07/18 08:28:46;;;;;;;3.67;1.60;;;12.00;99.90;;;;;;5034342;28;20222;-76
2022/07/18 08:31:16;;;;;;;4.35;1.65;;;12.00;99.90;;;;;;5034263;28;20186;-74
2022/07/18 08:33:47;;;;;;;6.45;2.05;;;12.00;99.90;;;;;;5034097;28;20191;-74
2022/07/18 08:36:20;;;;;;;6.25;1.70;;;11.90;99.90;;;;;;5030851;28;20229;-74
2022/07/18 08:38:50;;;;;;;4.50;1.60;;;11.90;99.90;;;;;;5034264;28;20198;-74
2022/07/18 08:41:25;;;;;;;4.75;1.40;;;11.90;99.90;;;;;;5033953;28;20195;-74
2022/07/18 08:43:56;;;;;;;3.38;1.48;;;11.90;99.90;;;;;;5033485;28;20244;-75
2022/07/18 08:46:28;;;;;;;2.53;1.33;;;11.90;99.90;;;;;;5033209;28;20187;-75
2022/07/18 08:48:59;;;;;;;4.88;1.60;;;11.90;99.90;;;;;;5034014;28;20218;-74
2022/07/18 08:51:30;;;;;;;3.00;1.38;;;11.90;99.90;;;;;;5033902;28;25069;-74
2022/07/18 08:54:01;;;;;;;3.25;1.40;;;11.90;99.90;;;;;;5014024;28;20193;-74
2022/07/18 08:56:34;;;;;;;2.00;1.20;;;11.90;99.90;;;;;;5014206;28;20191;-73
2022/07/18 08:59:05;;;;;;;3.65;1.33;;;11.90;99.90;;;;;;5013884;28;20206;-73
2022/07/18 09:01:36;;;;;;;2.55;1.30;;;11.90;99.90;;;;;;5027349;28;20190;-74
2022/07/18 09:04:24;;;;;;;1.50;1.20;;;11.80;99.90;;;;;;5033559;28;20594;-74
2022/07/18 09:06:57;;;;;;;5.03;1.17;;;11.80;99.90;;;;;;5032494;28;20191;-74
2022/07/18 09:09:28;;;;;;;2.00;1.15;;;11.70;99.90;;;;;;5033382;28;20222;-74
2022/07/18 09:12:02;;;;;;;1.88;1.20;;;11.70;99.90;;;;;;5033210;28;20552;-74
2022/07/18 09:14:38;;;;;;;2.08;1.20;;;11.70;99.90;;;;;;5033125;28;20197;-74
2022/07/18 09:17:14;;;;;;;2.03;0.95;;;11.70;99.90;;;;;;5033582;28;20193;-74
2022/07/18 09:19:57;;;;;;;2.10;1.10;;;11.60;99.90;;;;;;5033573;28;20214;-74
2022/07/18 09:22:30;;;;;;;2.97;0.93;;;11.50;99.90;;;;;;5032221;28;20198;-74
2022/07/18 09:25:07;;;;;;;1.05;0.80;;;11.50;99.90;;;;;;5022068;28;20214;-75
2022/07/18 09:27:42;;;;;;;3.28;1.13;;;11.50;99.90;;;;;;5029023;28;20247;-74
2022/07/18 09:30:18;;;;;;;1.63;1.05;;;11.40;99.90;;;;;;5032954;28;20221;-73
2022/07/18 09:32:51;;;;;;;1.90;0.80;;;11.40;99.90;;;;;;5032961;28;20205;-74
2022/07/18 09:35:24;;;;;;;1.85;1.00;;;11.40;99.90;;;;;;5032227;28;20696;-73
2022/07/18 09:38:03;;;;;;;2.35;0.95;;;11.30;99.90;;;;;;5032695;28;20618;-74
2022/07/18 09:40:38;;;;;;;2.42;1.08;;;11.30;99.90;;;;;;5032518;28;20190;-74
2022/07/18 09:43:14;;;;;;;3.35;1.00;;;11.30;99.90;;;;;;5023567;28;20658;-73
2022/07/18 09:45:48;;;;;;;2.38;1.20;;;11.30;99.90;;;;;;5032813;28;20202;-76
2022/07/18 09:48:20;;;;;;;1.27;1.00;;;11.30;99.90;;;;;;5032501;28;20303;-76
2022/07/18 09:50:55;;;;;;;1.63;1.00;;;11.20;99.90;;;;;;5032656;28;20220;-76
2022/07/18 09:53:26;;;;;;;2.83;1.20;;;11.20;99.90;;;;;;5032626;28;20556;-76
2022/07/18 09:55:58;;;;;;;3.42;1.17;;;11.20;99.90;;;;;;5032023;28;20198;-76
2022/07/18 09:58:32;;;;;;;3.08;1.10;;;11.20;99.90;;;;;;5032689;28;20197;-76
2022/07/18 10:01:05;;;;;;;3.00;1.02;;;11.20;99.90;;;;;;5032833;28;20186;-76
2022/07/18 10:03:36;;;;;;;2.05;1.02;;;11.10;99.90;;;;;;5032443;28;20203;-76
2022/07/18 10:06:07;;;;;;;3.10;0.93;;;11.10;99.90;;;;;;5032329;28;20277;-76
2022/07/18 10:08:38;;;;;;;1.65;0.98;;;11.10;99.90;;;;;;5029413;28;20193;-76
2022/07/18 10:11:10;;;;;;;4.32;1.05;;;11.10;99.90;;;;;;5032619;28;20194;-77
2022/07/18 10:13:43;;;;;;;3.08;1.02;;;11.00;99.90;;;;;;5032515;28;20204;-76
2022/07/18 10:16:13;;;;;;;3.03;1.15;;;11.10;99.90;;;;;;5032259;28;20194;-77
2022/07/18 10:18:44;;;;;;;2.45;1.20;;;11.00;99.90;;;;;;5032253;28;20190;-76
2022/07/18 10:21:16;;;;;;;1.77;1.00;;;11.00;99.90;;;;;;5032602;28;20201;-76
2022/07/18 10:23:48;;;;;;;2.97;1.30;;;10.90;99.90;;;;;;5032537;28;20233;-75
2022/07/18 10:26:19;;;;;;;2.58;1.45;;;10.90;99.90;;;;;;5031491;28;20191;-76
2022/07/18 10:29:25;;;;;;;3.05;1.67;;;10.80;99.90;;;;;;5032087;28;20194;-76
2022/07/18 10:32:08;;;;;;;2.28;1.50;;;10.90;99.90;;;;;;5032028;28;20197;-76
2022/07/18 10:34:40;;;;;;;2.15;1.27;;;10.80;99.90;;;;;;5028659;28;20325;-76
2022/07/18 10:37:13;;;;;;;2.30;1.23;;;10.80;99.90;;;;;;5032144;28;20272;-76
2022/07/18 10:39:45;;;;;;;2.60;1.30;;;10.80;99.90;;;;;;5035800;28;20281;-76
2022/07/18 10:42:24;;;;;;;2.85;1.25;;;10.70;99.90;;;;;;5035890;28;20573;-76
2022/07/18 10:44:55;;;;;;;1.98;1.20;;;10.70;99.90;;;;;;5036234;28;20190;-75
2022/07/18 10:47:32;;;;;;;5.05;1.73;;;10.60;99.90;;;;;;5034624;28;20197;-76
2022/07/18 10:50:10;;;;;;;3.25;1.60;;;10.50;99.90;;;;;;5033057;28;20216;-76
2022/07/18 10:52:59;;;;;;;4.30;1.60;;;10.50;99.90;;;;;;5032972;28;20190;-77
2022/07/18 10:55:35;;;;;;;2.17;1.30;;;10.50;99.90;;;;;;5035305;28;20670;-76
2022/07/18 10:58:24;;;;;;;4.50;1.67;;;10.50;99.90;;;;;;5033287;28;20224;-76
2022/07/18 11:01:02;;;;;;;2.70;1.33;;;10.50;99.90;;;;;;5034690;28;20195;-76
2022/07/18 11:03:35;;;;;;;4.88;1.50;;;10.40;99.90;;;;;;5035319;28;20194;-76
2022/07/18 11:06:05;;;;;;;2.60;1.23;;;10.40;99.90;;;;;;5033059;28;20193;-76
2022/07/18 11:08:37;;;;;;;1.95;1.40;;;10.40;99.90;;;;;;5031671;28;20199;-76
2022/07/18 11:11:17;;;;;;;3.97;1.48;;;10.40;99.90;;;;;;5035046;28;20214;-76
2022/07/18 11:13:52;;;;;;;2.45;1.58;;;10.40;99.90;;;;;;5033432;28;20198;-76
2022/07/18 11:16:25;;;;;;;2.60;1.70;;;10.40;99.90;;;;;;5035148;28;20183;-76
2022/07/18 11:19:24;;;;;;;2.95;1.88;;;10.30;99.90;;;;;;5035389;28;20202;-76
2022/07/18 11:22:01;;;;;;;3.80;1.98;;;10.30;99.90;;;;;;5034836;28;20283;-76
2022/07/18 11:24:32;;;;;;;3.00;1.50;;;10.30;99.90;;;;;;5034866;28;20270;-76
2022/07/18 11:27:06;;;;;;;3.08;1.73;;;10.30;99.90;;;;;;5032379;28;20187;-76
2022/07/18 11:29:44;;;;;;;3.78;1.80;;;10.30;99.90;;;;;;5031538;28;20269;-76
2022/07/18 11:32:14;;;;;;;2.70;1.73;;;10.30;99.90;;;;;;5034858;28;20233;-76
2022/07/18 11:34:53;;;;;;;2.95;1.70;;;10.30;99.90;;;;;;5034519;28;20202;-76
2022/07/18 11:37:23;;;;;;;2.58;1.75;;;10.30;99.90;;;;;;5034543;28;20193;-76
2022/07/18 11:39:54;;;;;;;4.38;1.85;;;10.20;99.90;;;;;;5034993;28;20186;-76
2022/07/18 11:42:39;;;;;;;3.80;2.03;;;10.20;99.90;;;;;;5034505;28;20193;-76
2022/07/18 11:45:12;;;;;;;3.72;1.90;;;10.20;99.90;;;;;;5024968;28;20277;-75
2022/07/18 11:47:51;;;;;;;5.07;2.25;;;10.20;99.90;;;;;;5034723;28;20202;-75
2022/07/18 11:50:37;;;;;;;5.07;1.77;;;10.10;99.90;;;;;;5033542;28;20202;-75
2022/07/18 11:53:08;;;;;;;3.40;1.70;;;10.20;99.90;;;;;;5032433;28;20599;-75
2022/07/18 11:55:40;;;;;;;5.35;1.95;;;10.20;99.90;;;;;;5031326;28;20198;-74
2022/07/18 11:58:11;;;;;;;2.95;1.50;;;10.20;99.90;;;;;;5034511;28;20230;-74
2022/07/18 12:00:43;;;;;;;3.10;1.67;;;10.20;99.90;;;;;;5034215;28;20195;-74
2022/07/18 12:03:16;;;;;;;3.58;1.80;;;10.10;99.90;;;;;;5034071;28;20193;-74
2022/07/18 12:05:50;;;;;;;3.47;1.45;;;10.20;99.90;;;;;;5034304;28;20201;-74
2022/07/18 12:08:35;;;;;;;2.53;1.70;;;10.20;99.90;;;;;;5034061;28;20195;-74
2022/07/18 12:11:11;;;;;;;4.18;1.60;;;10.20;99.90;;;;;;5032177;28;20206;-74
2022/07/18 12:13:48;;;;;;;5.50;2.00;;;10.20;99.90;;;;;;5031484;28;20198;-74
2022/07/18 12:16:38;;;;;;;3.78;1.52;;;10.20;99.90;;;;;;5033447;28;20182;-74
2022/07/18 12:19:11;;;;;;;2.38;1.30;;;10.20;99.90;;;;;;5031834;28;20205;-74
2022/07/18 12:21:49;;;;;;;3.17;1.67;;;10.20;99.90;;;;;;5033199;28;20190;-74
2022/07/18 12:24:31;;;;;;;2.22;1.38;;;10.30;99.90;;;;;;5033214;28;20195;-75
2022/07/18 12:27:18;;;;;;;2.72;1.50;;;10.30;99.90;;;;;;5033785;28;20201;-74
2022/07/18 12:30:06;;;;;;;211.48;103.20;;;10.30;99.90;;;;;;5033802;28;20217;-74
2022/07/18 12:32:45;;;;;;;177.52;89.60;;;10.40;99.90;;;;;;5030389;28;20195;-75
2022/07/18 12:35:18;;;;;;;34.60;23.42;;;10.40;99.90;;;;;;5031695;28;20454;-75
2022/07/18 12:37:59;;;;;;;9.00;4.82;;;10.40;99.90;;;;;;5034015;28;20191;-75
2022/07/18 12:40:44;;;;;;;5.78;2.90;;;10.40;99.90;;;;;;5034056;28;20186;-75
2022/07/18 12:43:16;;;;;;;5.50;2.22;;;10.40;99.90;;;;;;5032477;28;20214;-75
2022/07/18 12:45:48;;;;;;;4.53;2.20;;;10.30;99.90;;;;;;5033418;28;20565;-75
2022/07/18 12:48:18;;;;;;;4.78;1.77;;;10.30;99.90;;;;;;5032776;28;20194;-74
2022/07/18 12:50:57;;;;;;;3.13;1.80;;;10.30;99.90;;;;;;5022477;28;20218;-74
2022/07/18 12:53:30;;;;;;;2.55;1.40;;;10.20;99.90;;;;;;5033451;28;20197;-75
2022/07/18 12:56:01;;;;;;;2.78;1.52;;;10.20;99.90;;;;;;5030320;28;20191;-74
2022/07/18 12:58:32;;;;;;;2.38;1.35;;;10.10;99.90;;;;;;5033169;28;20190;-75
2022/07/18 13:01:03;;;;;;;1.50;1.20;;;10.10;99.90;;;;;;5031415;28;20194;-75
2022/07/18 13:03:34;;;;;;;3.60;1.40;;;10.00;99.90;;;;;;5032698;28;20183;-75
2022/07/18 13:06:05;;;;;;;1.38;1.10;;;10.00;99.90;;;;;;5030827;28;20195;-74
2022/07/18 13:08:37;;;;;;;3.30;1.38;;;10.00;99.90;;;;;;5033086;28;20263;-76
2022/07/18 13:11:08;;;;;;;3.15;1.30;;;10.00;99.90;;;;;;5031070;28;20217;-75
2022/07/18 13:13:39;;;;;;;1.98;1.05;;;10.00;99.90;;;;;;5029876;28;20198;-75
2022/07/18 13:16:10;;;;;;;1.80;1.00;;;10.10;99.90;;;;;;5032644;28;20668;-75